sensor_id;sensor_type;location;lat;lon;timestamp;P1;durP1;ratioP1;P2;durP2;ratioP2
16450;SDS011;12243;42.708;23.310;2023-11-19T00:00:58;2.70;;;2.53;;
16450;SDS011;12243;42.708;23.310;2023-11-19T00:03:25;2.37;;;2.27;;
16450;SDS011;12243;42.708;23.310;2023-11-19T00:05:54;2.30;;;2.20;;
16450;SDS011;12243;42.708;23.310;2023-11-19T00:08:22;2.97;;;2.70;;
16450;SDS011;12243;42.708;23.310;2023-11-19T00:10:50;2.50;;;2.30;;
16450;SDS011;12243;42.708;23.310;2023-11-19T00:13:16;2.80;;;2.10;;
16450;SDS011;12243;42.708;23.310;2023-11-19T00:15:43;2.07;;;1.97;;
16450;SDS011;12243;42.708;23.310;2023-11-19T00:18:12;1.97;;;1.87;;
16450;SDS011;12243;42.708;23.310;2023-11-19T00:20:39;1.90;;;1.80;;
16450;SDS011;12243;42.708;23.310;2023-11-19T00:23:11;2.30;;;2.20;;
16450;SDS011;12243;42.708;23.310;2023-11-19T00:25:38;2.27;;;2.17;;
16450;SDS011;12243;42.708;23.310;2023-11-19T00:28:05;2.43;;;2.30;;
16450;SDS011;12243;42.708;23.310;2023-11-19T00:30:32;2.60;;;2.40;;
16450;SDS011;12243;42.708;23.310;2023-11-19T00:32:59;2.37;;;2.27;;
16450;SDS011;12243;42.708;23.310;2023-11-19T00:35:26;2.57;;;2.37;;
16450;SDS011;12243;42.708;23.310;2023-11-19T00:37:53;3.00;;;2.80;;
16450;SDS011;12243;42.708;23.310;2023-11-19T00:40:21;2.30;;;2.20;;
16450;SDS011;12243;42.708;23.310;2023-11-19T00:42:49;2.43;;;2.33;;
16450;SDS011;12243;42.708;23.310;2023-11-19T00:45:15;2.50;;;2.30;;
16450;SDS011;12243;42.708;23.310;2023-11-19T00:47:42;1.93;;;1.83;;
16450;SDS011;12243;42.708;23.310;2023-11-19T00:50:09;2.77;;;2.57;;
16450;SDS011;12243;42.708;23.310;2023-11-19T00:52:37;2.40;;;1.90;;
16450;SDS011;12243;42.708;23.310;2023-11-19T00:55:05;3.00;;;2.70;;
16450;SDS011;12243;42.708;23.310;2023-11-19T00:57:34;2.37;;;2.20;;
16450;SDS011;12243;42.708;23.310;2023-11-19T01:00:01;2.50;;;2.33;;
16450;SDS011;12243;42.708;23.310;2023-11-19T01:02:32;2.20;;;2.10;;
16450;SDS011;12243;42.708;23.310;2023-11-19T01:04:59;1.73;;;1.63;;
16450;SDS011;12243;42.708;23.310;2023-11-19T01:07:26;2.40;;;2.30;;
16450;SDS011;12243;42.708;23.310;2023-11-19T01:09:53;2.50;;;2.40;;
16450;SDS011;12243;42.708;23.310;2023-11-19T01:12:20;2.67;;;2.57;;
16450;SDS011;12243;42.708;23.310;2023-11-19T01:14:48;2.50;;;2.40;;
16450;SDS011;12243;42.708;23.310;2023-11-19T01:17:15;2.10;;;2.00;;
16450;SDS011;12243;42.708;23.310;2023-11-19T01:19:43;2.73;;;2.40;;
16450;SDS011;12243;42.708;23.310;2023-11-19T01:22:10;1.80;;;1.70;;
16450;SDS011;12243;42.708;23.310;2023-11-19T01:24:37;2.10;;;2.00;;
16450;SDS011;12243;42.708;23.310;2023-11-19T01:27:04;2.50;;;2.40;;
16450;SDS011;12243;42.708;23.310;2023-11-19T01:29:31;3.07;;;2.40;;
16450;SDS011;12243;42.708;23.310;2023-11-19T01:32:00;2.40;;;2.30;;
16450;SDS011;12243;42.708;23.310;2023-11-19T01:34:27;2.20;;;2.00;;
16450;SDS011;12243;42.708;23.310;2023-11-19T01:36:54;2.00;;;1.90;;
16450;SDS011;12243;42.708;23.310;2023-11-19T01:39:21;2.40;;;2.30;;
16450;SDS011;12243;42.708;23.310;2023-11-19T01:41:48;1.73;;;1.70;;
16450;SDS011;12243;42.708;23.310;2023-11-19T01:44:15;2.67;;;1.90;;
16450;SDS011;12243;42.708;23.310;2023-11-19T01:46:43;2.03;;;1.90;;
16450;SDS011;12243;42.708;23.310;2023-11-19T01:49:14;2.20;;;2.10;;
16450;SDS011;12243;42.708;23.310;2023-11-19T01:51:42;1.70;;;1.60;;
16450;SDS011;12243;42.708;23.310;2023-11-19T01:54:09;2.10;;;1.93;;
16450;SDS011;12243;42.708;23.310;2023-11-19T01:56:36;1.93;;;1.83;;
16450;SDS011;12243;42.708;23.310;2023-11-19T01:59:07;1.80;;;1.70;;
16450;SDS011;12243;42.708;23.310;2023-11-19T02:01:39;2.00;;;1.90;;
16450;SDS011;12243;42.708;23.310;2023-11-19T02:04:06;2.00;;;1.90;;
16450;SDS011;12243;42.708;23.310;2023-11-19T02:06:36;1.80;;;1.70;;
16450;SDS011;12243;42.708;23.310;2023-11-19T02:09:06;2.17;;;1.97;;
16450;SDS011;12243;42.708;23.310;2023-11-19T02:11:33;2.20;;;2.10;;
16450;SDS011;12243;42.708;23.310;2023-11-19T02:14:04;2.13;;;2.03;;
16450;SDS011;12243;42.708;23.310;2023-11-19T02:16:31;2.03;;;1.93;;
16450;SDS011;12243;42.708;23.310;2023-11-19T02:18:58;2.13;;;1.97;;
16450;SDS011;12243;42.708;23.310;2023-11-19T02:21:24;2.40;;;2.30;;
16450;SDS011;12243;42.708;23.310;2023-11-19T02:23:53;2.30;;;2.20;;
16450;SDS011;12243;42.708;23.310;2023-11-19T02:26:22;2.20;;;2.10;;
16450;SDS011;12243;42.708;23.310;2023-11-19T02:28:56;2.17;;;2.07;;
16450;SDS011;12243;42.708;23.310;2023-11-19T02:31:24;2.17;;;2.07;;
16450;SDS011;12243;42.708;23.310;2023-11-19T02:33:52;2.10;;;2.00;;
16450;SDS011;12243;42.708;23.310;2023-11-19T02:36:20;2.33;;;2.20;;
16450;SDS011;12243;42.708;23.310;2023-11-19T02:38:47;2.17;;;1.97;;
16450;SDS011;12243;42.708;23.310;2023-11-19T02:41:14;2.10;;;2.00;;
16450;SDS011;12243;42.708;23.310;2023-11-19T02:43:41;2.13;;;2.03;;
16450;SDS011;12243;42.708;23.310;2023-11-19T02:46:10;2.30;;;2.20;;
16450;SDS011;12243;42.708;23.310;2023-11-19T02:48:37;2.30;;;2.20;;
16450;SDS011;12243;42.708;23.310;2023-11-19T02:51:05;2.13;;;2.03;;
16450;SDS011;12243;42.708;23.310;2023-11-19T02:53:34;2.37;;;2.27;;
16450;SDS011;12243;42.708;23.310;2023-11-19T02:56:02;2.10;;;2.00;;
16450;SDS011;12243;42.708;23.310;2023-11-19T02:58:37;2.10;;;2.00;;
16450;SDS011;12243;42.708;23.310;2023-11-19T03:01:04;2.43;;;2.30;;
16450;SDS011;12243;42.708;23.310;2023-11-19T03:03:39;5.00;;;2.53;;
16450;SDS011;12243;42.708;23.310;2023-11-19T03:06:07;2.57;;;2.37;;
16450;SDS011;12243;42.708;23.310;2023-11-19T03:08:35;2.10;;;2.00;;
16450;SDS011;12243;42.708;23.310;2023-11-19T03:11:02;2.43;;;2.33;;
16450;SDS011;12243;42.708;23.310;2023-11-19T03:13:30;2.00;;;1.90;;
16450;SDS011;12243;42.708;23.310;2023-11-19T03:15:57;1.80;;;1.70;;
16450;SDS011;12243;42.708;23.310;2023-11-19T03:18:24;2.10;;;2.00;;
16450;SDS011;12243;42.708;23.310;2023-11-19T03:20:53;1.53;;;1.53;;
16450;SDS011;12243;42.708;23.310;2023-11-19T03:23:20;2.20;;;2.10;;
16450;SDS011;12243;42.708;23.310;2023-11-19T03:25:48;2.23;;;2.13;;
16450;SDS011;12243;42.708;23.310;2023-11-19T03:28:15;2.47;;;2.30;;
16450;SDS011;12243;42.708;23.310;2023-11-19T03:30:42;2.37;;;2.27;;
16450;SDS011;12243;42.708;23.310;2023-11-19T03:33:09;2.90;;;2.70;;
16450;SDS011;12243;42.708;23.310;2023-11-19T03:35:36;2.47;;;2.37;;
16450;SDS011;12243;42.708;23.310;2023-11-19T03:38:04;2.33;;;2.23;;
16450;SDS011;12243;42.708;23.310;2023-11-19T03:40:31;2.33;;;2.23;;
16450;SDS011;12243;42.708;23.310;2023-11-19T03:42:58;2.33;;;2.13;;
16450;SDS011;12243;42.708;23.310;2023-11-19T03:45:25;2.60;;;2.40;;
16450;SDS011;12243;42.708;23.310;2023-11-19T03:47:52;2.83;;;2.63;;
16450;SDS011;12243;42.708;23.310;2023-11-19T03:50:19;4.33;;;2.63;;
16450;SDS011;12243;42.708;23.310;2023-11-19T03:52:46;2.40;;;2.30;;
16450;SDS011;12243;42.708;23.310;2023-11-19T03:55:14;2.00;;;1.90;;
16450;SDS011;12243;42.708;23.310;2023-11-19T03:57:41;3.17;;;2.93;;
16450;SDS011;12243;42.708;23.310;2023-11-19T04:00:08;2.73;;;2.53;;
16450;SDS011;12243;42.708;23.310;2023-11-19T04:02:39;1.70;;;1.60;;
16450;SDS011;12243;42.708;23.310;2023-11-19T04:05:06;2.30;;;2.10;;
16450;SDS011;12243;42.708;23.310;2023-11-19T04:07:35;2.83;;;2.70;;
16450;SDS011;12243;42.708;23.310;2023-11-19T04:10:01;2.10;;;2.00;;
16450;SDS011;12243;42.708;23.310;2023-11-19T04:12:31;2.60;;;2.50;;
16450;SDS011;12243;42.708;23.310;2023-11-19T04:14:58;2.50;;;2.30;;
16450;SDS011;12243;42.708;23.310;2023-11-19T04:17:25;2.43;;;2.23;;
16450;SDS011;12243;42.708;23.310;2023-11-19T04:19:52;2.40;;;2.20;;
16450;SDS011;12243;42.708;23.310;2023-11-19T04:22:19;2.70;;;2.50;;
16450;SDS011;12243;42.708;23.310;2023-11-19T04:24:46;2.70;;;2.50;;
16450;SDS011;12243;42.708;23.310;2023-11-19T04:27:13;2.20;;;2.10;;
16450;SDS011;12243;42.708;23.310;2023-11-19T04:29:42;2.53;;;2.43;;
16450;SDS011;12243;42.708;23.310;2023-11-19T04:32:08;2.80;;;2.50;;
16450;SDS011;12243;42.708;23.310;2023-11-19T04:34:35;2.80;;;2.60;;
16450;SDS011;12243;42.708;23.310;2023-11-19T04:37:03;2.90;;;2.70;;
16450;SDS011;12243;42.708;23.310;2023-11-19T04:39:30;2.87;;;2.63;;
16450;SDS011;12243;42.708;23.310;2023-11-19T04:41:57;2.70;;;2.50;;
16450;SDS011;12243;42.708;23.310;2023-11-19T04:44:24;2.30;;;2.20;;
16450;SDS011;12243;42.708;23.310;2023-11-19T04:46:53;2.60;;;2.40;;
16450;SDS011;12243;42.708;23.310;2023-11-19T04:49:19;2.30;;;1.67;;
16450;SDS011;12243;42.708;23.310;2023-11-19T04:51:46;2.20;;;2.10;;
16450;SDS011;12243;42.708;23.310;2023-11-19T04:54:13;2.60;;;2.43;;
16450;SDS011;12243;42.708;23.310;2023-11-19T04:56:44;2.33;;;2.23;;
16450;SDS011;12243;42.708;23.310;2023-11-19T04:59:12;3.10;;;2.80;;
16450;SDS011;12243;42.708;23.310;2023-11-19T05:01:38;2.60;;;2.50;;
16450;SDS011;12243;42.708;23.310;2023-11-19T05:04:07;2.70;;;2.50;;
16450;SDS011;12243;42.708;23.310;2023-11-19T05:06:34;2.20;;;2.10;;
16450;SDS011;12243;42.708;23.310;2023-11-19T05:09:01;2.67;;;2.47;;
16450;SDS011;12243;42.708;23.310;2023-11-19T05:11:30;2.50;;;2.30;;
16450;SDS011;12243;42.708;23.310;2023-11-19T05:13:58;2.40;;;2.30;;
16450;SDS011;12243;42.708;23.310;2023-11-19T05:16:25;2.87;;;2.60;;
16450;SDS011;12243;42.708;23.310;2023-11-19T05:18:52;3.40;;;2.63;;
16450;SDS011;12243;42.708;23.310;2023-11-19T05:21:20;2.77;;;2.63;;
16450;SDS011;12243;42.708;23.310;2023-11-19T05:23:47;2.60;;;2.40;;
16450;SDS011;12243;42.708;23.310;2023-11-19T05:26:17;2.73;;;2.53;;
16450;SDS011;12243;42.708;23.310;2023-11-19T05:28:46;2.67;;;2.57;;
16450;SDS011;12243;42.708;23.310;2023-11-19T05:31:13;3.37;;;2.67;;
16450;SDS011;12243;42.708;23.310;2023-11-19T05:33:40;3.20;;;3.00;;
16450;SDS011;12243;42.708;23.310;2023-11-19T05:36:07;2.60;;;2.43;;
16450;SDS011;12243;42.708;23.310;2023-11-19T05:38:36;2.30;;;2.20;;
16450;SDS011;12243;42.708;23.310;2023-11-19T05:41:03;2.80;;;2.60;;
16450;SDS011;12243;42.708;23.310;2023-11-19T05:43:31;2.60;;;2.33;;
16450;SDS011;12243;42.708;23.310;2023-11-19T05:45:58;2.57;;;2.37;;
16450;SDS011;12243;42.708;23.310;2023-11-19T05:48:26;3.27;;;2.47;;
16450;SDS011;12243;42.708;23.310;2023-11-19T05:50:54;3.00;;;2.70;;
16450;SDS011;12243;42.708;23.310;2023-11-19T05:53:20;2.60;;;2.40;;
16450;SDS011;12243;42.708;23.310;2023-11-19T05:55:49;2.40;;;2.30;;
16450;SDS011;12243;42.708;23.310;2023-11-19T05:58:22;3.07;;;2.50;;
16450;SDS011;12243;42.708;23.310;2023-11-19T06:00:53;2.93;;;2.70;;
16450;SDS011;12243;42.708;23.310;2023-11-19T06:03:20;2.80;;;2.60;;
16450;SDS011;12243;42.708;23.310;2023-11-19T06:05:47;2.00;;;1.90;;
16450;SDS011;12243;42.708;23.310;2023-11-19T06:08:16;2.70;;;2.40;;
16450;SDS011;12243;42.708;23.310;2023-11-19T06:10:43;2.90;;;2.70;;
16450;SDS011;12243;42.708;23.310;2023-11-19T06:13:12;2.77;;;2.63;;
16450;SDS011;12243;42.708;23.310;2023-11-19T06:15:41;2.80;;;2.70;;
16450;SDS011;12243;42.708;23.310;2023-11-19T06:18:10;2.70;;;2.50;;
16450;SDS011;12243;42.708;23.310;2023-11-19T06:20:37;3.20;;;2.97;;
16450;SDS011;12243;42.708;23.310;2023-11-19T06:23:05;2.87;;;2.50;;
16450;SDS011;12243;42.708;23.310;2023-11-19T06:25:32;3.03;;;2.83;;
16450;SDS011;12243;42.708;23.310;2023-11-19T06:28:00;3.13;;;2.83;;
16450;SDS011;12243;42.708;23.310;2023-11-19T06:30:29;2.90;;;2.70;;
16450;SDS011;12243;42.708;23.310;2023-11-19T06:32:57;3.30;;;2.70;;
16450;SDS011;12243;42.708;23.310;2023-11-19T06:35:25;3.10;;;2.90;;
16450;SDS011;12243;42.708;23.310;2023-11-19T06:37:54;3.03;;;2.70;;
16450;SDS011;12243;42.708;23.310;2023-11-19T06:40:21;3.37;;;2.93;;
16450;SDS011;12243;42.708;23.310;2023-11-19T06:42:48;2.73;;;2.53;;
16450;SDS011;12243;42.708;23.310;2023-11-19T06:45:15;2.83;;;2.63;;
16450;SDS011;12243;42.708;23.310;2023-11-19T06:47:44;3.10;;;2.90;;
16450;SDS011;12243;42.708;23.310;2023-11-19T06:50:10;2.47;;;2.27;;
16450;SDS011;12243;42.708;23.310;2023-11-19T06:52:37;2.50;;;2.30;;
16450;SDS011;12243;42.708;23.310;2023-11-19T06:55:05;2.40;;;2.20;;
16450;SDS011;12243;42.708;23.310;2023-11-19T06:57:33;2.67;;;2.47;;
16450;SDS011;12243;42.708;23.310;2023-11-19T06:59:59;3.43;;;3.13;;
16450;SDS011;12243;42.708;23.310;2023-11-19T07:02:26;2.93;;;2.73;;
16450;SDS011;12243;42.708;23.310;2023-11-19T07:04:54;2.30;;;2.20;;
16450;SDS011;12243;42.708;23.310;2023-11-19T07:07:21;3.03;;;2.83;;
16450;SDS011;12243;42.708;23.310;2023-11-19T07:09:49;3.40;;;3.20;;
16450;SDS011;12243;42.708;23.310;2023-11-19T07:12:16;3.70;;;3.00;;
16450;SDS011;12243;42.708;23.310;2023-11-19T07:14:43;3.40;;;3.10;;
16450;SDS011;12243;42.708;23.310;2023-11-19T07:17:11;3.50;;;3.27;;
16450;SDS011;12243;42.708;23.310;2023-11-19T07:19:38;3.70;;;3.40;;
16450;SDS011;12243;42.708;23.310;2023-11-19T07:22:07;2.43;;;2.23;;
16450;SDS011;12243;42.708;23.310;2023-11-19T07:24:34;2.57;;;2.40;;
16450;SDS011;12243;42.708;23.310;2023-11-19T07:27:01;3.33;;;3.10;;
16450;SDS011;12243;42.708;23.310;2023-11-19T07:29:29;3.03;;;2.83;;
16450;SDS011;12243;42.708;23.310;2023-11-19T07:31:56;3.37;;;3.07;;
16450;SDS011;12243;42.708;23.310;2023-11-19T07:34:23;3.40;;;3.20;;
16450;SDS011;12243;42.708;23.310;2023-11-19T07:36:50;3.40;;;3.10;;
16450;SDS011;12243;42.708;23.310;2023-11-19T07:39:18;3.30;;;3.00;;
16450;SDS011;12243;42.708;23.310;2023-11-19T07:41:46;3.57;;;3.27;;
16450;SDS011;12243;42.708;23.310;2023-11-19T07:44:13;3.17;;;2.97;;
16450;SDS011;12243;42.708;23.310;2023-11-19T07:46:40;4.07;;;2.77;;
16450;SDS011;12243;42.708;23.310;2023-11-19T07:49:07;3.43;;;2.87;;
16450;SDS011;12243;42.708;23.310;2023-11-19T07:51:35;3.33;;;3.00;;
16450;SDS011;12243;42.708;23.310;2023-11-19T07:54:02;2.93;;;2.73;;
16450;SDS011;12243;42.708;23.310;2023-11-19T07:56:32;3.83;;;2.63;;
16450;SDS011;12243;42.708;23.310;2023-11-19T07:59:00;3.20;;;2.90;;
16450;SDS011;12243;42.708;23.310;2023-11-19T08:01:27;2.50;;;2.30;;
16450;SDS011;12243;42.708;23.310;2023-11-19T08:03:54;2.67;;;2.47;;
16450;SDS011;12243;42.708;23.310;2023-11-19T08:06:21;3.17;;;2.93;;
16450;SDS011;12243;42.708;23.310;2023-11-19T08:08:48;3.50;;;3.17;;
16450;SDS011;12243;42.708;23.310;2023-11-19T08:11:15;2.37;;;2.27;;
16450;SDS011;12243;42.708;23.310;2023-11-19T08:13:43;3.40;;;3.17;;
16450;SDS011;12243;42.708;23.310;2023-11-19T08:16:10;3.30;;;3.00;;
16450;SDS011;12243;42.708;23.310;2023-11-19T08:18:37;2.57;;;2.37;;
16450;SDS011;12243;42.708;23.310;2023-11-19T08:21:07;3.43;;;3.13;;
16450;SDS011;12243;42.708;23.310;2023-11-19T08:23:35;3.63;;;3.33;;
16450;SDS011;12243;42.708;23.310;2023-11-19T08:26:03;3.83;;;3.53;;
16450;SDS011;12243;42.708;23.310;2023-11-19T08:28:31;4.57;;;3.37;;
16450;SDS011;12243;42.708;23.310;2023-11-19T08:31:01;3.47;;;2.97;;
16450;SDS011;12243;42.708;23.310;2023-11-19T08:33:29;4.43;;;3.67;;
16450;SDS011;12243;42.708;23.310;2023-11-19T08:35:56;3.90;;;3.60;;
16450;SDS011;12243;42.708;23.310;2023-11-19T08:38:23;2.37;;;2.27;;
16450;SDS011;12243;42.708;23.310;2023-11-19T08:40:50;5.07;;;4.03;;
16450;SDS011;12243;42.708;23.310;2023-11-19T08:43:17;4.07;;;3.80;;
16450;SDS011;12243;42.708;23.310;2023-11-19T08:45:44;3.73;;;3.53;;
16450;SDS011;12243;42.708;23.310;2023-11-19T08:48:13;3.67;;;3.37;;
16450;SDS011;12243;42.708;23.310;2023-11-19T08:50:40;3.50;;;3.23;;
16450;SDS011;12243;42.708;23.310;2023-11-19T08:53:07;3.40;;;3.20;;
16450;SDS011;12243;42.708;23.310;2023-11-19T08:55:34;3.30;;;3.10;;
16450;SDS011;12243;42.708;23.310;2023-11-19T08:58:02;2.93;;;2.73;;
16450;SDS011;12243;42.708;23.310;2023-11-19T09:00:29;3.67;;;3.37;;
16450;SDS011;12243;42.708;23.310;2023-11-19T09:02:57;3.57;;;3.27;;
16450;SDS011;12243;42.708;23.310;2023-11-19T09:05:26;3.40;;;3.10;;
16450;SDS011;12243;42.708;23.310;2023-11-19T09:07:52;3.13;;;2.77;;
16450;SDS011;12243;42.708;23.310;2023-11-19T09:10:20;2.77;;;2.57;;
16450;SDS011;12243;42.708;23.310;2023-11-19T09:12:48;3.33;;;3.03;;
16450;SDS011;12243;42.708;23.310;2023-11-19T09:15:15;3.30;;;3.00;;
16450;SDS011;12243;42.708;23.310;2023-11-19T09:17:42;2.20;;;2.10;;
16450;SDS011;12243;42.708;23.310;2023-11-19T09:20:09;2.93;;;2.83;;
16450;SDS011;12243;42.708;23.310;2023-11-19T09:22:41;2.87;;;2.63;;
16450;SDS011;12243;42.708;23.310;2023-11-19T09:25:08;3.73;;;3.43;;
16450;SDS011;12243;42.708;23.310;2023-11-19T09:27:36;3.43;;;3.13;;
16450;SDS011;12243;42.708;23.310;2023-11-19T09:30:03;3.43;;;2.93;;
16450;SDS011;12243;42.708;23.310;2023-11-19T09:32:30;3.00;;;2.80;;
16450;SDS011;12243;42.708;23.310;2023-11-19T09:34:57;2.60;;;2.40;;
16450;SDS011;12243;42.708;23.310;2023-11-19T09:37:25;3.37;;;3.10;;
16450;SDS011;12243;42.708;23.310;2023-11-19T09:39:54;4.30;;;3.83;;
16450;SDS011;12243;42.708;23.310;2023-11-19T09:42:21;3.03;;;2.83;;
16450;SDS011;12243;42.708;23.310;2023-11-19T09:44:50;2.57;;;2.37;;
16450;SDS011;12243;42.708;23.310;2023-11-19T09:47:18;3.90;;;2.80;;
16450;SDS011;12243;42.708;23.310;2023-11-19T09:49:46;2.37;;;2.27;;
16450;SDS011;12243;42.708;23.310;2023-11-19T09:52:13;2.87;;;2.67;;
16450;SDS011;12243;42.708;23.310;2023-11-19T09:54:41;3.07;;;2.80;;
16450;SDS011;12243;42.708;23.310;2023-11-19T09:57:09;5.00;;;3.20;;
16450;SDS011;12243;42.708;23.310;2023-11-19T09:59:38;3.03;;;2.83;;
16450;SDS011;12243;42.708;23.310;2023-11-19T10:02:06;2.20;;;2.10;;
16450;SDS011;12243;42.708;23.310;2023-11-19T10:04:33;3.00;;;2.80;;
16450;SDS011;12243;42.708;23.310;2023-11-19T10:07:02;3.03;;;2.83;;
16450;SDS011;12243;42.708;23.310;2023-11-19T10:09:29;2.47;;;2.37;;
16450;SDS011;12243;42.708;23.310;2023-11-19T10:11:56;3.27;;;2.97;;
16450;SDS011;12243;42.708;23.310;2023-11-19T10:14:25;2.50;;;2.30;;
16450;SDS011;12243;42.708;23.310;2023-11-19T10:16:54;2.50;;;2.30;;
16450;SDS011;12243;42.708;23.310;2023-11-19T10:19:23;3.00;;;2.80;;
16450;SDS011;12243;42.708;23.310;2023-11-19T10:21:50;2.73;;;2.17;;
16450;SDS011;12243;42.708;23.310;2023-11-19T10:24:23;2.77;;;2.57;;
16450;SDS011;12243;42.708;23.310;2023-11-19T10:26:59;3.03;;;2.77;;
16450;SDS011;12243;42.708;23.310;2023-11-19T10:29:27;4.47;;;2.50;;
16450;SDS011;12243;42.708;23.310;2023-11-19T10:31:56;3.20;;;2.90;;
16450;SDS011;12243;42.708;23.310;2023-11-19T10:34:26;2.57;;;2.43;;
16450;SDS011;12243;42.708;23.310;2023-11-19T10:36:55;3.10;;;2.80;;
16450;SDS011;12243;42.708;23.310;2023-11-19T10:39:22;2.50;;;2.40;;
16450;SDS011;12243;42.708;23.310;2023-11-19T10:41:49;2.77;;;2.57;;
16450;SDS011;12243;42.708;23.310;2023-11-19T10:47:01;2.63;;;2.43;;
16450;SDS011;12243;42.708;23.310;2023-11-19T10:49:32;2.23;;;2.10;;
16450;SDS011;12243;42.708;23.310;2023-11-19T10:52:01;3.07;;;2.67;;
16450;SDS011;12243;42.708;23.310;2023-11-19T10:54:33;2.03;;;1.93;;
16450;SDS011;12243;42.708;23.310;2023-11-19T10:57:01;2.57;;;2.30;;
16450;SDS011;12243;42.708;23.310;2023-11-19T10:59:29;2.60;;;2.50;;
16450;SDS011;12243;42.708;23.310;2023-11-19T11:01:58;3.30;;;2.77;;
16450;SDS011;12243;42.708;23.310;2023-11-19T11:04:31;3.63;;;3.33;;
16450;SDS011;12243;42.708;23.310;2023-11-19T11:07:07;2.97;;;2.80;;
16450;SDS011;12243;42.708;23.310;2023-11-19T11:09:35;2.50;;;2.40;;
16450;SDS011;12243;42.708;23.310;2023-11-19T11:12:02;2.70;;;2.60;;
16450;SDS011;12243;42.708;23.310;2023-11-19T11:14:32;2.07;;;1.97;;
16450;SDS011;12243;42.708;23.310;2023-11-19T11:17:07;2.33;;;2.13;;
16450;SDS011;12243;42.708;23.310;2023-11-19T11:19:38;3.07;;;2.87;;
16450;SDS011;12243;42.708;23.310;2023-11-19T11:22:05;2.83;;;2.63;;
16450;SDS011;12243;42.708;23.310;2023-11-19T11:24:57;2.77;;;2.57;;
16450;SDS011;12243;42.708;23.310;2023-11-19T11:30:58;2.83;;;2.63;;
16450;SDS011;12243;42.708;23.310;2023-11-19T11:37:10;3.63;;;3.10;;
16450;SDS011;12243;42.708;23.310;2023-11-19T11:39:43;2.97;;;2.77;;
16450;SDS011;12243;42.708;23.310;2023-11-19T11:44:59;2.80;;;2.60;;
16450;SDS011;12243;42.708;23.310;2023-11-19T11:50:29;3.73;;;3.40;;
16450;SDS011;12243;42.708;23.310;2023-11-19T11:53:13;2.77;;;2.57;;
16450;SDS011;12243;42.708;23.310;2023-11-19T11:55:51;2.80;;;2.67;;
16450;SDS011;12243;42.708;23.310;2023-11-19T11:58:35;2.67;;;2.47;;
16450;SDS011;12243;42.708;23.310;2023-11-19T12:01:04;2.90;;;2.70;;
16450;SDS011;12243;42.708;23.310;2023-11-19T12:03:34;2.27;;;2.17;;
16450;SDS011;12243;42.708;23.310;2023-11-19T12:06:08;2.70;;;2.53;;
16450;SDS011;12243;42.708;23.310;2023-11-19T12:08:37;3.00;;;2.40;;
16450;SDS011;12243;42.708;23.310;2023-11-19T12:11:05;4.23;;;2.87;;
16450;SDS011;12243;42.708;23.310;2023-11-19T12:13:46;2.70;;;2.50;;
16450;SDS011;12243;42.708;23.310;2023-11-19T12:16:19;2.37;;;2.17;;
16450;SDS011;12243;42.708;23.310;2023-11-19T12:18:46;2.43;;;2.27;;
16450;SDS011;12243;42.708;23.310;2023-11-19T12:21:28;2.53;;;2.43;;
16450;SDS011;12243;42.708;23.310;2023-11-19T12:23:57;2.33;;;2.23;;
16450;SDS011;12243;42.708;23.310;2023-11-19T12:26:33;2.77;;;2.57;;
16450;SDS011;12243;42.708;23.310;2023-11-19T12:29:00;2.87;;;2.67;;
16450;SDS011;12243;42.708;23.310;2023-11-19T12:31:31;2.60;;;2.40;;
16450;SDS011;12243;42.708;23.310;2023-11-19T12:34:04;2.90;;;2.70;;
16450;SDS011;12243;42.708;23.310;2023-11-19T12:36:33;3.30;;;2.90;;
16450;SDS011;12243;42.708;23.310;2023-11-19T12:39:01;2.87;;;2.67;;
16450;SDS011;12243;42.708;23.310;2023-11-19T12:41:29;3.00;;;2.83;;
16450;SDS011;12243;42.708;23.310;2023-11-19T12:44:08;2.73;;;2.53;;
16450;SDS011;12243;42.708;23.310;2023-11-19T12:46:36;2.90;;;2.70;;
16450;SDS011;12243;42.708;23.310;2023-11-19T12:49:03;2.80;;;2.50;;
16450;SDS011;12243;42.708;23.310;2023-11-19T12:51:31;2.70;;;2.57;;
16450;SDS011;12243;42.708;23.310;2023-11-19T12:54:00;2.97;;;2.67;;
16450;SDS011;12243;42.708;23.310;2023-11-19T12:56:27;3.23;;;2.87;;
16450;SDS011;12243;42.708;23.310;2023-11-19T12:58:55;3.40;;;3.07;;
16450;SDS011;12243;42.708;23.310;2023-11-19T13:01:21;6.40;;;3.30;;
16450;SDS011;12243;42.708;23.310;2023-11-19T13:03:48;5.93;;;3.07;;
16450;SDS011;12243;42.708;23.310;2023-11-19T13:06:16;4.00;;;3.53;;
16450;SDS011;12243;42.708;23.310;2023-11-19T13:08:47;3.90;;;3.60;;
16450;SDS011;12243;42.708;23.310;2023-11-19T13:11:31;2.67;;;2.57;;
16450;SDS011;12243;42.708;23.310;2023-11-19T13:13:59;2.67;;;2.47;;
16450;SDS011;12243;42.708;23.310;2023-11-19T13:16:29;2.80;;;2.60;;
16450;SDS011;12243;42.708;23.310;2023-11-19T13:18:57;3.23;;;3.03;;
16450;SDS011;12243;42.708;23.310;2023-11-19T13:21:25;3.30;;;3.10;;
16450;SDS011;12243;42.708;23.310;2023-11-19T13:23:52;6.00;;;3.70;;
16450;SDS011;12243;42.708;23.310;2023-11-19T13:26:19;3.60;;;3.30;;
16450;SDS011;12243;42.708;23.310;2023-11-19T13:28:47;4.00;;;3.27;;
16450;SDS011;12243;42.708;23.310;2023-11-19T13:31:14;3.17;;;2.93;;
16450;SDS011;12243;42.708;23.310;2023-11-19T13:33:41;3.97;;;3.57;;
16450;SDS011;12243;42.708;23.310;2023-11-19T13:36:09;7.87;;;4.87;;
16450;SDS011;12243;42.708;23.310;2023-11-19T13:38:36;11.77;;;5.90;;
16450;SDS011;12243;42.708;23.310;2023-11-19T13:41:03;5.23;;;3.57;;
16450;SDS011;12243;42.708;23.310;2023-11-19T13:43:31;4.53;;;4.13;;
16450;SDS011;12243;42.708;23.310;2023-11-19T13:46:00;3.07;;;2.87;;
16450;SDS011;12243;42.708;23.310;2023-11-19T13:48:27;3.60;;;3.40;;
16450;SDS011;12243;42.708;23.310;2023-11-19T13:50:54;2.93;;;2.73;;
16450;SDS011;12243;42.708;23.310;2023-11-19T13:53:21;3.23;;;2.93;;
16450;SDS011;12243;42.708;23.310;2023-11-19T13:55:49;4.10;;;2.87;;
16450;SDS011;12243;42.708;23.310;2023-11-19T13:58:16;3.10;;;2.80;;
16450;SDS011;12243;42.708;23.310;2023-11-19T14:00:43;4.83;;;3.37;;
16450;SDS011;12243;42.708;23.310;2023-11-19T14:03:12;2.90;;;2.70;;
16450;SDS011;12243;42.708;23.310;2023-11-19T14:05:42;3.37;;;3.17;;
16450;SDS011;12243;42.708;23.310;2023-11-19T14:08:08;3.47;;;3.17;;
16450;SDS011;12243;42.708;23.310;2023-11-19T14:10:37;3.17;;;2.80;;
16450;SDS011;12243;42.708;23.310;2023-11-19T14:13:05;4.03;;;3.73;;
16450;SDS011;12243;42.708;23.310;2023-11-19T14:15:33;3.30;;;3.00;;
16450;SDS011;12243;42.708;23.310;2023-11-19T14:18:00;3.80;;;3.50;;
16450;SDS011;12243;42.708;23.310;2023-11-19T14:20:29;3.63;;;3.30;;
16450;SDS011;12243;42.708;23.310;2023-11-19T14:22:56;3.10;;;2.90;;
16450;SDS011;12243;42.708;23.310;2023-11-19T14:25:23;3.03;;;2.87;;
16450;SDS011;12243;42.708;23.310;2023-11-19T14:27:50;3.63;;;3.13;;
16450;SDS011;12243;42.708;23.310;2023-11-19T14:30:17;2.87;;;2.67;;
16450;SDS011;12243;42.708;23.310;2023-11-19T14:32:44;3.60;;;3.40;;
16450;SDS011;12243;42.708;23.310;2023-11-19T14:35:12;5.63;;;3.57;;
16450;SDS011;12243;42.708;23.310;2023-11-19T14:37:40;5.87;;;3.80;;
16450;SDS011;12243;42.708;23.310;2023-11-19T14:40:07;5.20;;;4.10;;
16450;SDS011;12243;42.708;23.310;2023-11-19T14:42:36;6.83;;;5.53;;
16450;SDS011;12243;42.708;23.310;2023-11-19T14:45:05;9.67;;;6.10;;
16450;SDS011;12243;42.708;23.310;2023-11-19T14:47:34;6.27;;;5.13;;
16450;SDS011;12243;42.708;23.310;2023-11-19T14:50:01;8.87;;;5.63;;
16450;SDS011;12243;42.708;23.310;2023-11-19T14:52:28;6.60;;;5.00;;
16450;SDS011;12243;42.708;23.310;2023-11-19T14:54:56;9.90;;;6.33;;